Terminal Aerodrome Forecast
Issued by NWS Tallahassee, FL

Home | Current Version | Previous Version | Text Only | Print | Product List | Glossary On
Versions: 1 2 3 4 5 6 7 8 9 10 11 12 13 14 15 16 17 18 19 20 21 22 23 24 25 26 27
000
FTUS42 KTAE 210532
TAFTLH
TAF
KTLH 210532Z 2106/2206 VRB03KT 3SM BR SCT007 BKN015
     FM210800 32003KT P6SM BKN015
     FM211200 35006KT P6SM SCT200
     FM220000 00000KT P6SM SKC=

USA.gov is the U.S. government's official web portal to all federal, state and local government web resources and services.